Time;durP1;ratioP1;P1;durP2;ratioP2;P2;SDS_P1;SDS_P2;PMS_P1;PMS_P2;Temp;Humidity;BMP_temperature;BMP_pressure;BME280_temperature;BME280_humidity;BME280_pressure;Samples;Min_cycle;Max_cycle;Signal;HPM_P1;HPM_P2
2023/10/26 00:00:35;;;;;;;1.93;0.80;;;12.20;48.80;;;;;;5032885;28;46507;-80
2023/10/26 00:03:01;;;;;;;2.17;0.83;;;12.20;48.80;;;;;;5030692;28;46986;-80
2023/10/26 00:05:27;;;;;;;2.07;0.70;;;12.20;48.80;;;;;;5029269;28;46409;-82
2023/10/26 00:07:52;;;;;;;2.50;0.80;;;12.40;49.00;;;;;;5029296;28;46439;-82
2023/10/26 00:10:18;;;;;;;1.83;0.80;;;12.10;48.70;;;;;;5029418;28;46725;-81
2023/10/26 00:12:45;;;;;;;2.00;0.80;;;12.10;48.70;;;;;;5031433;28;47071;-81
2023/10/26 00:15:10;;;;;;;2.40;0.87;;;12.30;49.10;;;;;;5031139;28;47228;-81
2023/10/26 00:17:37;;;;;;;3.10;1.00;;;12.10;49.20;;;;;;5031107;28;46519;-80
2023/10/26 00:20:06;;;;;;;1.70;0.90;;;12.10;49.40;;;;;;5031008;28;46840;-79
2023/10/26 00:22:32;;;;;;;2.00;0.80;;;11.90;49.30;;;;;;5031110;28;46426;-81
2023/10/26 00:24:58;;;;;;;3.60;0.80;;;11.90;49.40;;;;;;5031609;28;46826;-81
2023/10/26 00:27:23;;;;;;;2.17;0.80;;;11.90;49.00;;;;;;5031276;28;46448;-81
2023/10/26 00:29:49;;;;;;;1.57;0.77;;;11.90;48.90;;;;;;5027402;28;48676;-81
2023/10/26 00:32:14;;;;;;;2.47;0.80;;;12.00;48.80;;;;;;5031618;28;46449;-82
2023/10/26 00:34:40;;;;;;;1.87;0.70;;;11.90;48.70;;;;;;5030660;28;46850;-79
2023/10/26 00:37:07;;;;;;;1.93;0.80;;;11.70;49.00;;;;;;5034087;28;46921;-80
2023/10/26 00:39:34;;;;;;;2.17;0.80;;;11.60;49.40;;;;;;5030316;28;47235;-81
2023/10/26 00:41:59;;;;;;;5.40;0.73;;;11.50;49.80;;;;;;5031144;28;46704;-80
2023/10/26 00:44:25;;;;;;;2.53;0.80;;;11.30;49.70;;;;;;5028424;28;46510;-80
2023/10/26 00:46:52;;;;;;;1.70;0.80;;;11.20;49.80;;;;;;5028213;28;45939;-80
2023/10/26 00:49:19;;;;;;;1.63;0.70;;;11.10;50.00;;;;;;5030606;28;46768;-81
2023/10/26 00:51:47;;;;;;;1.53;0.70;;;11.00;50.10;;;;;;5029449;28;47641;-81
2023/10/26 00:54:15;;;;;;;2.50;0.83;;;11.00;50.20;;;;;;5031074;28;46511;-83
2023/10/26 00:56:41;;;;;;;1.80;0.80;;;10.80;49.20;;;;;;5033845;28;46451;-82
2023/10/26 00:59:07;;;;;;;2.23;0.80;;;10.80;50.30;;;;;;5036007;28;46920;-83
2023/10/26 01:01:34;;;;;;;3.30;0.80;;;10.80;50.30;;;;;;5039097;28;46404;-83
2023/10/26 01:04:01;;;;;;;3.87;1.23;;;10.80;50.30;;;;;;5038866;28;46783;-81
2023/10/26 01:06:26;;;;;;;1.60;0.73;;;10.70;50.20;;;;;;5036563;28;46660;-82
2023/10/26 01:08:53;;;;;;;1.60;0.70;;;10.60;50.20;;;;;;5046302;28;48058;-82
2023/10/26 01:11:20;;;;;;;5.53;0.80;;;10.60;50.20;;;;;;5034475;28;46559;-80
2023/10/26 01:13:46;;;;;;;2.90;0.80;;;10.50;50.30;;;;;;5031750;28;46715;-81
2023/10/26 01:16:13;;;;;;;2.03;0.93;;;10.50;50.40;;;;;;5027850;28;46678;-81
2023/10/26 01:18:39;;;;;;;1.60;0.70;;;10.50;50.40;;;;;;5036328;28;48542;-79
2023/10/26 01:21:04;;;;;;;3.53;0.90;;;10.50;50.40;;;;;;5036057;28;46477;-81
2023/10/26 01:23:30;;;;;;;1.60;0.80;;;10.40;50.10;;;;;;5030683;28;46816;-80
2023/10/26 01:25:58;;;;;;;5.43;0.87;;;10.50;50.30;;;;;;5029319;28;46502;-80
2023/10/26 01:28:25;;;;;;;1.70;0.80;;;10.30;50.00;;;;;;5029386;28;46783;-80
2023/10/26 01:30:52;;;;;;;2.60;0.90;;;10.30;50.00;;;;;;5028945;28;46770;-82
2023/10/26 01:33:18;;;;;;;2.37;0.90;;;10.40;50.00;;;;;;5028689;28;46506;-81
2023/10/26 01:35:45;;;;;;;3.20;0.80;;;10.30;50.70;;;;;;5025228;28;46842;-81
2023/10/26 01:38:12;;;;;;;1.50;0.70;;;10.50;49.40;;;;;;5029817;28;47300;-81
2023/10/26 01:40:38;;;;;;;1.40;0.70;;;10.50;48.90;;;;;;5029481;28;46492;-81
2023/10/26 01:43:04;;;;;;;2.03;0.80;;;10.70;48.30;;;;;;5030187;28;46466;-83
2023/10/26 01:45:29;;;;;;;1.67;0.77;;;10.70;48.90;;;;;;5030225;28;46434;-81
2023/10/26 01:47:55;;;;;;;1.60;0.70;;;10.90;47.20;;;;;;5033206;28;46732;-79
2023/10/26 01:50:21;;;;;;;3.20;0.70;;;10.80;46.90;;;;;;5032386;28;46556;-83
2023/10/26 01:52:46;;;;;;;1.53;0.73;;;10.70;47.00;;;;;;5036930;28;46377;-84
2023/10/26 01:55:12;;;;;;;1.60;0.80;;;10.70;47.20;;;;;;5034976;28;46554;-83
2023/10/26 01:57:38;;;;;;;1.50;0.70;;;10.60;47.30;;;;;;5033620;28;47536;-84
2023/10/26 02:00:04;;;;;;;1.60;0.70;;;10.70;47.70;;;;;;5038639;28;46902;-81
2023/10/26 02:02:30;;;;;;;2.40;0.80;;;10.40;47.80;;;;;;5034757;28;46521;-83
2023/10/26 02:04:55;;;;;;;2.60;1.13;;;10.40;48.10;;;;;;5037881;28;46503;-84
2023/10/26 02:07:21;;;;;;;1.70;0.80;;;10.30;49.20;;;;;;5038495;28;46351;-81
2023/10/26 02:09:47;;;;;;;2.83;0.80;;;10.30;48.20;;;;;;5029864;28;46435;-82
2023/10/26 02:12:12;;;;;;;1.40;0.70;;;10.20;48.10;;;;;;5035537;28;46484;-81
2023/10/26 02:14:38;;;;;;;2.07;0.90;;;10.10;48.30;;;;;;5033215;28;46393;-82
2023/10/26 02:17:05;;;;;;;1.93;0.80;;;10.10;48.50;;;;;;5031390;28;46723;-81
2023/10/26 02:19:30;;;;;;;2.30;0.70;;;10.00;48.80;;;;;;5033566;28;46461;-82
2023/10/26 02:21:56;;;;;;;1.67;0.70;;;10.00;49.10;;;;;;5030487;28;45886;-83
2023/10/26 02:24:21;;;;;;;1.63;0.80;;;9.80;50.20;;;;;;5032036;28;45904;-82
2023/10/26 02:26:47;;;;;;;1.53;0.63;;;9.70;49.40;;;;;;5033391;28;48491;-82
2023/10/26 02:29:13;;;;;;;5.97;0.80;;;9.70;50.40;;;;;;5034481;28;46750;-80
2023/10/26 02:31:38;;;;;;;3.30;0.80;;;9.60;50.50;;;;;;5031824;28;46787;-82
2023/10/26 02:34:04;;;;;;;2.53;0.80;;;9.60;50.70;;;;;;5035768;28;46543;-83
2023/10/26 02:36:30;;;;;;;1.87;0.80;;;9.50;51.90;;;;;;5039641;28;48462;-84
2023/10/26 02:38:56;;;;;;;1.80;0.80;;;9.60;50.70;;;;;;5032549;28;46656;-83
2023/10/26 02:41:21;;;;;;;2.63;0.80;;;9.50;50.30;;;;;;5034477;28;46806;-81
2023/10/26 02:43:47;;;;;;;2.73;0.97;;;9.50;50.20;;;;;;5035762;28;47030;-81
2023/10/26 02:46:13;;;;;;;3.50;0.80;;;9.40;50.30;;;;;;5037282;28;46868;-84
2023/10/26 02:48:38;;;;;;;3.23;0.80;;;9.40;50.30;;;;;;5037871;28;46584;-83
2023/10/26 02:51:04;;;;;;;2.13;0.70;;;9.30;50.50;;;;;;5034723;28;46497;-83
2023/10/26 02:53:30;;;;;;;2.67;1.00;;;9.10;50.60;;;;;;5037787;28;45839;-82
2023/10/26 02:55:55;;;;;;;1.60;0.70;;;9.00;50.90;;;;;;5036771;28;46587;-83
2023/10/26 02:58:21;;;;;;;1.60;0.70;;;8.90;51.00;;;;;;5038369;28;46467;-83
2023/10/26 03:00:47;;;;;;;2.43;0.70;;;8.90;51.30;;;;;;5038385;28;46814;-82
2023/10/26 03:03:12;;;;;;;2.70;0.80;;;8.80;51.60;;;;;;5031181;28;46533;-80
2023/10/26 03:05:38;;;;;;;2.03;0.90;;;8.70;51.60;;;;;;5034230;28;48219;-81
2023/10/26 03:08:05;;;;;;;1.50;0.70;;;8.70;51.50;;;;;;5030896;28;46633;-80
2023/10/26 03:10:30;;;;;;;1.60;0.73;;;8.50;51.30;;;;;;5032518;28;46485;-82
2023/10/26 03:12:56;;;;;;;2.00;0.80;;;8.50;51.30;;;;;;5052050;28;46832;-81
2023/10/26 03:15:21;;;;;;;1.83;0.80;;;8.50;51.80;;;;;;5034053;28;46489;-81
2023/10/26 03:17:47;;;;;;;1.80;0.70;;;8.20;52.40;;;;;;5030157;28;50664;-82
2023/10/26 03:20:13;;;;;;;2.23;0.80;;;8.10;53.00;;;;;;5036561;28;46471;-83
2023/10/26 03:22:38;;;;;;;1.70;0.73;;;8.00;53.30;;;;;;5036940;28;47054;-80
2023/10/26 03:25:05;;;;;;;2.03;0.70;;;7.90;53.60;;;;;;5036584;28;47356;-81
2023/10/26 03:27:31;;;;;;;2.43;0.70;;;7.90;53.60;;;;;;5033993;28;46408;-82
2023/10/26 03:29:57;;;;;;;2.87;0.80;;;7.80;53.50;;;;;;5034348;28;46496;-81
2023/10/26 03:32:22;;;;;;;1.77;0.77;;;7.90;53.50;;;;;;5036621;28;46305;-82
2023/10/26 03:34:48;;;;;;;1.43;0.67;;;7.80;53.30;;;;;;5048951;28;48474;-83
2023/10/26 03:37:14;;;;;;;1.60;0.70;;;7.80;53.20;;;;;;5032920;28;46822;-81
2023/10/26 03:39:40;;;;;;;1.60;0.70;;;7.90;53.30;;;;;;5038421;28;46239;-81
2023/10/26 03:42:06;;;;;;;1.70;1.03;;;7.90;53.30;;;;;;5035491;28;46540;-82
2023/10/26 03:44:31;;;;;;;1.70;0.67;;;7.90;53.30;;;;;;5034078;28;46387;-81
2023/10/26 03:46:57;;;;;;;1.37;0.67;;;8.00;53.50;;;;;;5036821;28;46514;-83
2023/10/26 03:49:23;;;;;;;3.07;0.80;;;8.00;53.50;;;;;;5036519;28;46465;-81
2023/10/26 03:51:49;;;;;;;2.10;0.77;;;7.90;53.60;;;;;;5030820;28;46417;-81
2023/10/26 03:54:14;;;;;;;1.43;0.77;;;8.00;53.80;;;;;;5032332;28;46488;-84
2023/10/26 03:56:40;;;;;;;2.13;0.80;;;8.00;54.00;;;;;;5050584;28;45816;-84
2023/10/26 03:59:05;;;;;;;1.60;0.90;;;8.00;54.20;;;;;;5036827;28;46376;-82
2023/10/26 04:01:32;;;;;;;1.33;0.63;;;8.00;54.40;;;;;;5032018;28;46879;-80
2023/10/26 04:03:58;;;;;;;2.53;0.80;;;8.00;54.50;;;;;;5033601;28;46360;-80
2023/10/26 04:06:23;;;;;;;2.80;0.83;;;8.00;54.60;;;;;;5036836;28;46629;-83
2023/10/26 04:08:49;;;;;;;1.60;0.80;;;8.00;54.50;;;;;;5041191;28;46503;-81
2023/10/26 04:11:18;;;;;;;1.70;0.90;;;8.00;54.70;;;;;;5035537;28;46436;-82
2023/10/26 04:13:44;;;;;;;2.90;1.17;;;8.00;54.90;;;;;;5035164;28;47530;-82
2023/10/26 04:16:10;;;;;;;1.83;0.80;;;8.20;55.40;;;;;;5033492;28;46362;-80
2023/10/26 04:18:35;;;;;;;1.90;0.90;;;8.00;55.70;;;;;;5042659;28;46524;-82
2023/10/26 04:21:01;;;;;;;1.90;0.90;;;8.00;55.80;;;;;;5038667;28;46661;-82
2023/10/26 04:23:27;;;;;;;1.90;0.80;;;8.00;55.90;;;;;;5035299;28;46461;-82
2023/10/26 04:25:53;;;;;;;1.70;0.90;;;8.00;55.80;;;;;;5051049;28;46418;-82
2023/10/26 04:28:19;;;;;;;2.87;1.00;;;8.10;55.80;;;;;;5036620;28;46432;-82
2023/10/26 04:30:48;;;;;;;3.97;0.80;;;8.10;55.80;;;;;;5042030;28;46926;-82
2023/10/26 04:33:14;;;;;;;1.70;0.90;;;8.20;55.70;;;;;;5036038;28;46681;-82
2023/10/26 04:35:41;;;;;;;1.40;0.80;;;8.20;55.40;;;;;;5033504;28;46505;-83
2023/10/26 04:38:08;;;;;;;4.57;0.93;;;8.20;55.30;;;;;;5032641;28;46494;-82
2023/10/26 04:40:34;;;;;;;11.10;0.97;;;8.20;55.40;;;;;;5038707;28;46836;-84
2023/10/26 04:43:00;;;;;;;2.37;0.93;;;8.20;55.40;;;;;;5034091;28;46487;-81
2023/10/26 04:45:25;;;;;;;1.40;0.60;;;8.20;55.40;;;;;;5039423;28;46296;-83
2023/10/26 04:47:51;;;;;;;1.70;0.80;;;8.20;55.30;;;;;;5036642;28;46513;-81
2023/10/26 04:50:16;;;;;;;2.17;0.80;;;8.30;56.60;;;;;;5034681;28;46472;-83
2023/10/26 04:52:42;;;;;;;1.50;0.77;;;8.40;55.10;;;;;;5031245;28;47995;-81
2023/10/26 04:55:08;;;;;;;1.37;0.70;;;8.60;55.00;;;;;;5033558;28;46443;-82
2023/10/26 04:57:34;;;;;;;1.40;0.70;;;8.70;54.50;;;;;;5031479;28;46920;-81
2023/10/26 05:00:00;;;;;;;2.33;1.10;;;8.80;54.30;;;;;;5036633;28;46454;-83
2023/10/26 05:02:25;;;;;;;1.67;0.80;;;8.90;54.10;;;;;;5034919;28;46394;-82
2023/10/26 05:04:51;;;;;;;1.97;0.80;;;9.00;54.10;;;;;;5035421;28;46451;-84
2023/10/26 05:07:17;;;;;;;2.60;0.70;;;9.00;53.90;;;;;;5035777;28;46458;-83
2023/10/26 05:09:42;;;;;;;1.57;0.90;;;9.20;53.70;;;;;;5036087;28;46399;-80
2023/10/26 05:12:08;;;;;;;2.43;0.80;;;9.30;53.30;;;;;;5036302;28;47359;-83
2023/10/26 05:14:33;;;;;;;5.93;0.90;;;9.40;52.40;;;;;;5030965;28;47037;-83
2023/10/26 05:16:59;;;;;;;5.23;0.97;;;9.50;52.20;;;;;;5029928;28;46754;-84
2023/10/26 05:19:24;;;;;;;1.83;0.90;;;9.60;52.30;;;;;;5035232;28;45947;-83
2023/10/26 05:21:50;;;;;;;2.40;0.80;;;9.70;52.40;;;;;;5036427;28;46746;-84
2023/10/26 05:24:15;;;;;;;1.50;0.73;;;9.70;52.30;;;;;;5046195;28;46758;-83
2023/10/26 05:26:41;;;;;;;1.40;0.60;;;9.80;52.40;;;;;;5041422;28;46814;-83
2023/10/26 05:29:07;;;;;;;1.93;0.87;;;9.80;52.50;;;;;;5040932;28;46355;-83
2023/10/26 05:31:32;;;;;;;1.40;0.70;;;9.90;52.50;;;;;;5032808;28;48739;-82
2023/10/26 05:33:58;;;;;;;1.60;0.70;;;10.00;51.60;;;;;;5033815;28;45944;-81
2023/10/26 05:36:23;;;;;;;3.80;0.80;;;10.20;51.80;;;;;;5032479;28;45885;-82
2023/10/26 05:38:50;;;;;;;2.07;0.87;;;10.20;51.80;;;;;;5048940;28;47053;-82
2023/10/26 05:41:15;;;;;;;4.07;0.80;;;10.30;51.90;;;;;;5031113;28;48332;-82
2023/10/26 05:43:41;;;;;;;1.90;0.80;;;10.30;51.90;;;;;;5026318;28;46439;-82
2023/10/26 05:46:06;;;;;;;1.30;0.70;;;10.40;52.00;;;;;;5033174;28;46428;-81
2023/10/26 05:48:33;;;;;;;1.80;0.90;;;10.50;52.10;;;;;;5032012;28;46502;-83
2023/10/26 05:50:59;;;;;;;2.30;1.10;;;10.60;52.20;;;;;;5026262;28;48740;-85
2023/10/26 05:53:25;;;;;;;4.60;2.77;;;10.80;52.50;;;;;;5036666;28;46845;-84
2023/10/26 05:56:00;;;;;;;5.00;2.10;;;10.70;52.80;;;;;;5035990;28;46808;-81
2023/10/26 05:58:26;;;;;;;1.83;0.80;;;10.80;53.20;;;;;;5032163;28;46486;-81
2023/10/26 06:00:52;;;;;;;2.13;1.03;;;10.80;53.40;;;;;;5032324;28;46971;-83
2023/10/26 06:03:18;;;;;;;2.17;1.07;;;11.00;53.70;;;;;;5027035;28;50044;-80
2023/10/26 06:05:43;;;;;;;1.57;0.80;;;10.90;53.80;;;;;;5029278;28;46417;-82
2023/10/26 06:08:09;;;;;;;3.00;0.80;;;10.90;53.90;;;;;;5026686;28;46077;-81
2023/10/26 06:10:35;;;;;;;2.23;0.90;;;11.10;54.20;;;;;;5034627;28;48356;-83
2023/10/26 06:13:02;;;;;;;23.30;8.00;;;11.10;54.10;;;;;;5025429;28;46378;-82
2023/10/26 06:15:28;;;;;;;3.30;1.37;;;11.30;54.10;;;;;;5025765;28;46399;-83
2023/10/26 06:17:54;;;;;;;1.40;0.80;;;11.20;54.10;;;;;;5026961;28;46526;-83
2023/10/26 06:20:22;;;;;;;1.70;0.90;;;11.40;54.30;;;;;;5031969;28;48166;-82
2023/10/26 06:22:47;;;;;;;1.97;0.87;;;11.30;54.20;;;;;;5029716;28;47742;-83
2023/10/26 06:25:13;;;;;;;2.23;0.70;;;11.30;54.10;;;;;;5033037;28;46883;-84
2023/10/26 06:27:38;;;;;;;5.63;0.93;;;11.30;54.40;;;;;;5038695;28;46886;-80
2023/10/26 06:30:05;;;;;;;4.20;1.30;;;11.40;55.00;;;;;;5035402;28;47035;-82
2023/10/26 06:32:30;;;;;;;1.97;1.07;;;11.40;55.30;;;;;;5038932;28;46692;-83
2023/10/26 06:34:56;;;;;;;2.20;0.90;;;11.50;55.50;;;;;;5035290;28;46408;-85
2023/10/26 06:37:23;;;;;;;2.50;0.90;;;11.40;55.80;;;;;;5038891;28;46493;-84
2023/10/26 06:39:48;;;;;;;2.20;0.90;;;11.40;56.30;;;;;;5037349;28;46401;-84
2023/10/26 06:42:14;;;;;;;2.93;1.20;;;11.50;57.20;;;;;;5036457;28;46382;-82
2023/10/26 06:44:40;;;;;;;1.63;0.90;;;11.50;57.30;;;;;;5031941;28;46436;-83
2023/10/26 06:47:06;;;;;;;2.33;0.83;;;11.70;57.40;;;;;;5029854;28;46506;-83
2023/10/26 06:49:31;;;;;;;2.33;0.93;;;11.60;57.40;;;;;;5030321;28;46759;-84
2023/10/26 06:51:58;;;;;;;3.47;1.10;;;11.60;57.40;;;;;;5028613;28;45924;-85
2023/10/26 06:54:23;;;;;;;5.00;1.20;;;11.60;57.50;;;;;;5034417;28;46978;-83
2023/10/26 06:56:49;;;;;;;4.57;1.30;;;11.70;56.70;;;;;;5031981;28;46477;-83
2023/10/26 06:59:14;;;;;;;6.17;1.33;;;11.70;57.70;;;;;;5035848;28;46658;-84
2023/10/26 07:01:40;;;;;;;2.37;0.97;;;11.80;57.60;;;;;;5034389;28;46467;-83
2023/10/26 07:04:06;;;;;;;3.30;0.93;;;11.90;57.60;;;;;;5033523;28;46440;-81
2023/10/26 07:06:32;;;;;;;1.90;0.80;;;11.90;57.60;;;;;;5032987;28;46414;-82
2023/10/26 07:08:58;;;;;;;20.97;9.33;;;11.90;57.60;;;;;;5030131;28;47527;-84
2023/10/26 07:11:23;;;;;;;5.77;3.20;;;12.00;57.80;;;;;;5030756;28;46582;-82
2023/10/26 07:13:49;;;;;;;3.77;2.23;;;12.00;57.90;;;;;;5029506;28;46553;-84
2023/10/26 07:16:14;;;;;;;1.80;1.00;;;12.00;58.10;;;;;;5031304;28;46594;-82
2023/10/26 07:18:40;;;;;;;2.17;0.90;;;12.10;58.10;;;;;;5033065;28;46856;-82
2023/10/26 07:21:06;;;;;;;2.80;1.00;;;12.10;58.10;;;;;;5038654;28;45885;-84
2023/10/26 07:23:33;;;;;;;2.40;0.83;;;12.20;58.00;;;;;;5032275;28;46162;-83
2023/10/26 07:25:59;;;;;;;1.50;0.70;;;12.30;57.70;;;;;;5036409;28;46520;-84
2023/10/26 07:28:24;;;;;;;1.67;1.00;;;12.40;57.50;;;;;;5033447;28;46463;-82
2023/10/26 07:30:52;;;;;;;2.23;0.87;;;12.40;57.50;;;;;;5032417;28;47205;-81
2023/10/26 07:33:19;;;;;;;3.27;0.93;;;12.50;57.40;;;;;;5034773;28;46481;-80
2023/10/26 07:35:56;;;;;;;2.90;0.90;;;12.50;57.10;;;;;;5034929;28;47037;-81
2023/10/26 07:38:24;;;;;;;1.40;0.80;;;12.50;57.20;;;;;;5036472;28;46758;-80
2023/10/26 07:40:54;;;;;;;1.50;0.77;;;12.50;57.50;;;;;;5035842;28;46839;-82
2023/10/26 07:43:20;;;;;;;2.73;1.77;;;12.50;57.50;;;;;;5038018;28;46409;-81
2023/10/26 07:45:51;;;;;;;3.90;1.57;;;12.60;57.70;;;;;;5038488;28;46673;-81
2023/10/26 07:48:17;;;;;;;5.07;1.70;;;12.70;57.40;;;;;;5032338;28;47155;-82
2023/10/26 07:50:42;;;;;;;2.37;1.13;;;12.80;57.30;;;;;;5036858;28;46193;-84
2023/10/26 07:53:08;;;;;;;2.00;0.80;;;12.90;57.20;;;;;;5036446;28;45868;-84
2023/10/26 07:55:34;;;;;;;2.37;0.80;;;13.00;57.20;;;;;;5034128;28;46151;-81
2023/10/26 07:58:02;;;;;;;2.90;0.97;;;12.90;57.10;;;;;;5032725;28;48363;-82
2023/10/26 08:00:28;;;;;;;1.47;0.73;;;13.00;57.00;;;;;;5030972;28;47377;-82
2023/10/26 08:02:53;;;;;;;2.83;0.90;;;12.90;57.20;;;;;;5026964;28;46476;-81
2023/10/26 08:05:19;;;;;;;1.90;1.00;;;12.90;57.20;;;;;;5030864;28;46576;-80
2023/10/26 08:07:47;;;;;;;3.23;1.20;;;13.10;57.20;;;;;;5031896;28;46970;-82
2023/10/26 08:10:13;;;;;;;2.13;1.17;;;13.10;56.80;;;;;;5032053;28;46705;-82
2023/10/26 08:12:39;;;;;;;1.87;1.00;;;13.10;56.90;;;;;;5044177;28;46819;-82
2023/10/26 08:15:05;;;;;;;3.93;1.33;;;13.10;57.20;;;;;;5033299;28;45990;-82
2023/10/26 08:17:35;;;;;;;2.60;1.10;;;13.00;57.20;;;;;;5033689;28;49863;-81
2023/10/26 08:20:07;;;;;;;2.60;0.90;;;13.00;57.40;;;;;;5034256;28;46469;-83
2023/10/26 08:22:33;;;;;;;4.23;1.10;;;13.10;57.20;;;;;;5025616;28;47068;-83
2023/10/26 08:24:59;;;;;;;3.50;1.40;;;13.20;56.80;;;;;;5034684;28;46967;-82
2023/10/26 08:27:25;;;;;;;2.97;1.10;;;13.30;56.80;;;;;;5029624;28;46694;-81
2023/10/26 08:29:51;;;;;;;2.90;0.97;;;13.30;56.60;;;;;;5030597;28;46551;-82
2023/10/26 08:32:17;;;;;;;5.83;0.80;;;13.40;56.60;;;;;;5031452;28;46912;-80
2023/10/26 08:34:44;;;;;;;3.13;1.00;;;13.40;56.50;;;;;;5029666;28;45993;-83
2023/10/26 08:37:10;;;;;;;2.30;0.90;;;13.40;56.70;;;;;;5028950;28;47259;-83
2023/10/26 08:39:36;;;;;;;1.67;0.77;;;13.40;57.00;;;;;;5028313;28;46671;-81
2023/10/26 08:42:02;;;;;;;1.70;0.80;;;13.40;57.00;;;;;;5027725;28;46591;-83
2023/10/26 08:44:32;;;;;;;2.00;0.90;;;13.60;56.60;;;;;;5027430;28;46560;-80
2023/10/26 08:47:00;;;;;;;1.80;0.77;;;13.70;55.80;;;;;;5028869;28;47108;-83
2023/10/26 08:49:33;;;;;;;1.90;0.80;;;13.90;55.20;;;;;;5029180;28;46563;-83
2023/10/26 08:51:59;;;;;;;1.70;0.70;;;13.90;55.20;;;;;;5026507;28;46423;-83
2023/10/26 08:54:28;;;;;;;2.53;1.00;;;13.80;55.50;;;;;;5027961;28;46455;-80
2023/10/26 08:56:54;;;;;;;1.80;0.87;;;13.90;54.20;;;;;;5037097;28;46798;-82
2023/10/26 08:59:23;;;;;;;2.30;0.70;;;13.90;55.20;;;;;;5029496;28;46042;-83
2023/10/26 09:01:48;;;;;;;1.60;0.80;;;14.00;55.40;;;;;;5032187;28;46724;-82
2023/10/26 09:04:15;;;;;;;2.30;1.07;;;14.10;55.40;;;;;;5030316;28;46419;-82
2023/10/26 09:06:45;;;;;;;1.80;0.80;;;13.90;55.20;;;;;;5029413;28;46964;-82
2023/10/26 09:09:12;;;;;;;1.77;0.73;;;13.70;55.90;;;;;;5032080;28;46380;-82
2023/10/26 09:11:38;;;;;;;1.63;0.80;;;13.60;56.20;;;;;;5030009;28;46430;-81
2023/10/26 09:14:20;;;;;;;2.80;1.07;;;13.30;57.90;;;;;;5032221;28;45984;-83
2023/10/26 09:16:48;;;;;;;2.73;0.93;;;13.20;57.50;;;;;;5027998;28;47046;-82
2023/10/26 09:19:16;;;;;;;2.73;1.07;;;13.20;57.70;;;;;;5030578;28;46417;-83
2023/10/26 09:21:58;;;;;;;2.40;0.80;;;13.20;57.20;;;;;;5030958;28;46523;-82
2023/10/26 09:24:24;;;;;;;1.80;0.70;;;13.50;56.70;;;;;;5030893;28;45914;-82
2023/10/26 09:26:55;;;;;;;2.03;1.00;;;13.60;53.90;;;;;;5031113;28;46737;-82
2023/10/26 09:29:40;;;;;;;1.60;0.83;;;13.60;55.00;;;;;;5029467;28;46734;-85
2023/10/26 09:32:07;;;;;;;1.90;0.93;;;13.60;55.00;;;;;;5033587;28;46808;-84
2023/10/26 09:34:40;;;;;;;2.53;0.90;;;13.60;55.00;;;;;;5050275;28;46032;-83
2023/10/26 09:37:07;;;;;;;1.73;0.80;;;13.50;55.20;;;;;;5029732;28;46307;-83
2023/10/26 09:39:35;;;;;;;2.47;0.77;;;13.50;55.60;;;;;;5029140;28;45951;-82
2023/10/26 09:42:02;;;;;;;1.80;0.83;;;13.50;55.70;;;;;;5029125;28;46610;-81
2023/10/26 09:44:29;;;;;;;1.93;0.77;;;13.50;55.60;;;;;;5026618;28;46482;-82
2023/10/26 09:46:55;;;;;;;1.50;0.70;;;13.50;53.80;;;;;;5033779;28;49192;-83
2023/10/26 09:49:26;;;;;;;1.80;0.90;;;13.60;55.00;;;;;;5030894;28;46525;-82
2023/10/26 09:51:53;;;;;;;1.90;1.00;;;13.60;55.00;;;;;;5027895;28;46566;-82
2023/10/26 09:54:21;;;;;;;2.70;0.90;;;13.60;55.00;;;;;;5029002;28;46744;-82
2023/10/26 09:56:56;;;;;;;2.50;1.10;;;13.60;55.00;;;;;;5029262;28;46504;-81
2023/10/26 09:59:23;;;;;;;1.90;1.03;;;13.60;55.00;;;;;;5028657;28;46149;-83
2023/10/26 10:01:48;;;;;;;1.57;0.90;;;13.50;54.90;;;;;;5028617;28;46791;-83
2023/10/26 10:04:18;;;;;;;2.83;1.00;;;13.40;54.80;;;;;;5028522;28;46564;-81
2023/10/26 10:06:54;;;;;;;2.10;1.10;;;13.30;54.70;;;;;;5026860;28;46843;-83
2023/10/26 10:09:27;;;;;;;2.10;0.90;;;13.30;54.70;;;;;;5027846;28;46999;-81
2023/10/26 10:12:13;;;;;;;1.80;1.00;;;13.20;54.80;;;;;;5029129;28;46709;-80
2023/10/26 10:14:49;;;;;;;2.70;0.97;;;13.30;54.70;;;;;;5026325;28;46537;-83
2023/10/26 10:17:15;;;;;;;2.00;0.90;;;13.30;54.70;;;;;;5025879;28;48330;-81
2023/10/26 10:19:43;;;;;;;3.00;1.30;;;13.50;54.90;;;;;;5027877;28;46476;-83
2023/10/26 10:22:34;;;;;;;2.90;1.50;;;13.50;54.90;;;;;;5030833;28;46689;-83
2023/10/26 10:25:00;;;;;;;4.13;1.30;;;13.50;54.90;;;;;;5041693;28;46536;-82
2023/10/26 10:27:26;;;;;;;3.00;1.43;;;13.50;55.00;;;;;;5028778;28;46646;-82
2023/10/26 10:30:05;;;;;;;2.30;1.03;;;13.70;55.00;;;;;;5025865;28;46393;-82
2023/10/26 10:32:42;;;;;;;6.07;1.90;;;13.70;55.00;;;;;;5026937;28;46572;-81
2023/10/26 10:35:12;;;;;;;21.97;13.33;;;13.70;55.00;;;;;;5027044;28;46956;-81
2023/10/26 10:37:38;;;;;;;12.27;6.70;;;13.70;55.00;;;;;;5025990;28;47030;-82
2023/10/26 10:40:15;;;;;;;5.37;2.30;;;13.70;55.00;;;;;;5027123;28;46810;-82
2023/10/26 10:42:48;;;;;;;2.10;1.10;;;13.70;55.00;;;;;;5028195;28;46951;-84
2023/10/26 10:45:16;;;;;;;2.27;1.10;;;13.70;55.00;;;;;;5045606;28;46661;-82
2023/10/26 10:47:43;;;;;;;2.80;1.40;;;13.80;55.20;;;;;;5029284;28;47210;-81
2023/10/26 10:50:21;;;;;;;2.27;1.23;;;14.00;55.30;;;;;;5030361;28;46252;-81
2023/10/26 10:52:48;;;;;;;2.03;1.07;;;14.30;55.30;;;;;;5028277;28;46507;-83
2023/10/26 10:55:27;;;;;;;2.23;1.30;;;14.10;55.30;;;;;;5029210;28;46715;-86
2023/10/26 10:58:00;;;;;;;2.87;1.60;;;14.00;55.30;;;;;;5036422;28;49745;-84
2023/10/26 11:00:28;;;;;;;2.40;1.00;;;14.30;55.60;;;;;;5028961;28;46549;-83
2023/10/26 11:02:57;;;;;;;2.20;1.30;;;14.40;54.70;;;;;;5026337;28;46582;-82
2023/10/26 11:05:39;;;;;;;2.20;1.20;;;14.60;54.10;;;;;;5034243;28;46386;-83
2023/10/26 11:08:07;;;;;;;2.20;1.30;;;14.90;53.30;;;;;;5036398;28;47362;-81
2023/10/26 11:10:34;;;;;;;4.80;1.43;;;15.30;52.30;;;;;;5033914;28;46582;-84
2023/10/26 11:12:59;;;;;;;4.80;2.50;;;15.50;51.40;;;;;;5034277;28;47357;-82
2023/10/26 11:15:36;;;;;;;3.87;2.53;;;15.80;50.50;;;;;;5035795;28;46685;-83
2023/10/26 11:18:03;;;;;;;5.33;2.23;;;16.00;49.80;;;;;;5032763;28;48509;-84
2023/10/26 11:20:32;;;;;;;3.00;1.30;;;16.30;49.50;;;;;;5039559;28;46529;-81
2023/10/26 11:22:58;;;;;;;2.13;1.13;;;16.50;49.20;;;;;;5033716;28;46553;-82
2023/10/26 11:25:25;;;;;;;2.47;1.20;;;16.60;49.20;;;;;;5037355;28;46351;-82
2023/10/26 11:27:51;;;;;;;2.17;1.40;;;16.60;49.60;;;;;;5038238;28;46597;-80
2023/10/26 11:30:16;;;;;;;3.40;1.30;;;16.70;50.10;;;;;;5053136;28;46838;-84
2023/10/26 11:32:42;;;;;;;3.53;1.30;;;16.60;50.30;;;;;;5037636;28;46455;-83
2023/10/26 11:35:09;;;;;;;2.30;1.30;;;16.70;50.40;;;;;;5034972;28;46732;-80
2023/10/26 11:37:41;;;;;;;5.60;1.37;;;16.70;50.10;;;;;;5030623;28;46496;-81
2023/10/26 11:40:08;;;;;;;3.17;1.20;;;16.60;50.40;;;;;;5026920;28;46486;-81
2023/10/26 11:42:58;;;;;;;1.97;1.00;;;16.40;51.20;;;;;;5035147;28;46530;-83
2023/10/26 11:45:28;;;;;;;4.80;1.27;;;16.20;52.30;;;;;;5034636;28;46716;-82
2023/10/26 11:47:58;;;;;;;2.00;0.87;;;16.10;52.90;;;;;;5029480;28;46524;-81
2023/10/26 11:50:27;;;;;;;2.87;1.20;;;16.10;52.90;;;;;;5030195;28;46663;-80
2023/10/26 11:53:04;;;;;;;2.57;1.23;;;16.10;53.10;;;;;;5032235;28;46693;-82
2023/10/26 11:55:32;;;;;;;2.20;1.20;;;16.10;53.10;;;;;;5031413;28;46405;-84
2023/10/26 11:57:58;;;;;;;1.80;1.00;;;16.10;52.90;;;;;;5032009;28;47452;-83
2023/10/26 12:00:25;;;;;;;2.47;1.10;;;16.10;52.70;;;;;;5033517;28;46331;-82
2023/10/26 12:02:56;;;;;;;4.23;1.20;;;16.30;52.50;;;;;;5030428;28;46588;-81
2023/10/26 12:05:23;;;;;;;1.70;0.90;;;16.70;51.50;;;;;;5029250;28;46819;-79
2023/10/26 12:07:49;;;;;;;2.80;1.40;;;17.10;50.50;;;;;;5030501;28;46809;-81
2023/10/26 12:10:17;;;;;;;2.27;1.00;;;17.30;49.60;;;;;;5030806;28;46555;-81
2023/10/26 12:12:44;;;;;;;2.83;1.10;;;17.40;50.40;;;;;;5029107;28;46884;-82
2023/10/26 12:15:10;;;;;;;3.40;1.70;;;17.40;49.00;;;;;;5030471;28;46824;-81
2023/10/26 12:17:36;;;;;;;1.90;0.90;;;17.50;48.90;;;;;;5027487;28;46998;-82
2023/10/26 12:20:03;;;;;;;2.90;1.50;;;17.60;48.70;;;;;;5029956;28;46505;-82
2023/10/26 12:22:29;;;;;;;4.90;1.43;;;17.40;48.80;;;;;;5033555;28;46593;-83
2023/10/26 12:24:55;;;;;;;3.90;1.23;;;17.10;50.50;;;;;;5045994;28;47526;-84
2023/10/26 12:27:22;;;;;;;4.27;1.27;;;17.10;49.60;;;;;;5027473;28;49148;-83
2023/10/26 12:29:48;;;;;;;2.57;1.10;;;17.10;49.60;;;;;;5029434;28;47022;-82
2023/10/26 12:32:14;;;;;;;3.23;1.10;;;17.00;49.60;;;;;;5037188;28;45906;-81
2023/10/26 12:34:40;;;;;;;4.13;1.23;;;16.90;49.50;;;;;;5032242;28;47122;-84
2023/10/26 12:37:06;;;;;;;2.50;1.00;;;16.90;49.50;;;;;;5036335;28;47971;-82
2023/10/26 12:39:32;;;;;;;3.37;1.20;;;16.80;49.60;;;;;;5033208;28;46446;-83
2023/10/26 12:41:58;;;;;;;3.53;1.23;;;16.70;49.90;;;;;;5030699;28;46629;-82
2023/10/26 12:44:24;;;;;;;3.20;1.33;;;16.60;49.90;;;;;;5038800;28;46751;-82
2023/10/26 12:46:53;;;;;;;2.57;1.23;;;16.40;50.20;;;;;;5031059;28;49122;-82